sensor_id;sensor_type;location;lat;lon;timestamp;P1;durP1;ratioP1;P2;durP2;ratioP2
57309;SDS011;43153;50.984;18.204;2022-07-22T00:02:13;17.20;;;4.80;;
57309;SDS011;43153;50.984;18.204;2022-07-22T00:04:57;11.60;;;5.40;;
57309;SDS011;43153;50.984;18.204;2022-07-22T00:07:41;12.00;;;4.10;;
57309;SDS011;43153;50.984;18.204;2022-07-22T00:10:26;15.40;;;4.50;;
57309;SDS011;43153;50.984;18.204;2022-07-22T00:13:12;15.00;;;4.50;;
57309;SDS011;43153;50.984;18.204;2022-07-22T00:15:59;14.40;;;4.30;;
57309;SDS011;43153;50.984;18.204;2022-07-22T00:18:43;11.10;;;4.60;;
57309;SDS011;43153;50.984;18.204;2022-07-22T00:21:28;14.20;;;5.50;;
57309;SDS011;43153;50.984;18.204;2022-07-22T00:24:12;16.50;;;4.90;;
57309;SDS011;43153;50.984;18.204;2022-07-22T00:26:56;14.20;;;5.10;;
57309;SDS011;43153;50.984;18.204;2022-07-22T00:29:40;14.70;;;4.70;;
57309;SDS011;43153;50.984;18.204;2022-07-22T00:32:25;17.60;;;4.70;;
57309;SDS011;43153;50.984;18.204;2022-07-22T00:35:09;16.40;;;4.70;;
57309;SDS011;43153;50.984;18.204;2022-07-22T00:37:53;11.40;;;4.90;;
57309;SDS011;43153;50.984;18.204;2022-07-22T00:40:37;13.50;;;4.70;;
57309;SDS011;43153;50.984;18.204;2022-07-22T00:43:22;17.80;;;5.20;;
57309;SDS011;43153;50.984;18.204;2022-07-22T00:46:07;14.80;;;5.40;;
57309;SDS011;43153;50.984;18.204;2022-07-22T00:48:52;12.50;;;5.40;;
57309;SDS011;43153;50.984;18.204;2022-07-22T00:51:37;10.00;;;4.40;;
57309;SDS011;43153;50.984;18.204;2022-07-22T00:54:23;12.80;;;5.80;;
57309;SDS011;43153;50.984;18.204;2022-07-22T00:57:07;16.10;;;5.90;;
57309;SDS011;43153;50.984;18.204;2022-07-22T00:59:51;14.10;;;6.70;;
57309;SDS011;43153;50.984;18.204;2022-07-22T01:02:36;19.10;;;5.90;;
57309;SDS011;43153;50.984;18.204;2022-07-22T01:05:20;16.00;;;5.90;;
57309;SDS011;43153;50.984;18.204;2022-07-22T01:08:05;14.00;;;6.10;;
57309;SDS011;43153;50.984;18.204;2022-07-22T01:10:51;11.60;;;5.80;;
57309;SDS011;43153;50.984;18.204;2022-07-22T01:13:35;15.30;;;5.60;;
57309;SDS011;43153;50.984;18.204;2022-07-22T01:16:20;11.30;;;6.00;;
57309;SDS011;43153;50.984;18.204;2022-07-22T01:19:04;15.10;;;6.30;;
57309;SDS011;43153;50.984;18.204;2022-07-22T01:21:48;14.90;;;5.50;;
57309;SDS011;43153;50.984;18.204;2022-07-22T01:24:33;14.60;;;5.70;;
57309;SDS011;43153;50.984;18.204;2022-07-22T01:27:17;16.10;;;6.30;;
57309;SDS011;43153;50.984;18.204;2022-07-22T01:30:02;14.40;;;5.60;;
57309;SDS011;43153;50.984;18.204;2022-07-22T01:32:46;14.40;;;5.80;;
57309;SDS011;43153;50.984;18.204;2022-07-22T01:35:31;20.50;;;6.10;;
57309;SDS011;43153;50.984;18.204;2022-07-22T01:38:15;12.30;;;5.90;;
57309;SDS011;43153;50.984;18.204;2022-07-22T01:40:59;11.40;;;5.30;;
57309;SDS011;43153;50.984;18.204;2022-07-22T01:43:44;13.70;;;5.30;;
57309;SDS011;43153;50.984;18.204;2022-07-22T01:46:28;13.20;;;5.90;;
57309;SDS011;43153;50.984;18.204;2022-07-22T01:49:12;12.90;;;5.60;;
57309;SDS011;43153;50.984;18.204;2022-07-22T01:51:56;11.50;;;5.80;;
57309;SDS011;43153;50.984;18.204;2022-07-22T01:54:41;12.80;;;5.40;;
57309;SDS011;43153;50.984;18.204;2022-07-22T01:57:25;13.50;;;5.20;;
57309;SDS011;43153;50.984;18.204;2022-07-22T02:00:10;10.60;;;5.30;;
57309;SDS011;43153;50.984;18.204;2022-07-22T02:02:55;14.00;;;5.60;;
57309;SDS011;43153;50.984;18.204;2022-07-22T02:05:40;10.20;;;5.40;;
57309;SDS011;43153;50.984;18.204;2022-07-22T02:08:24;11.60;;;4.80;;
57309;SDS011;43153;50.984;18.204;2022-07-22T02:11:09;10.60;;;5.30;;
57309;SDS011;43153;50.984;18.204;2022-07-22T02:13:54;11.40;;;5.20;;
57309;SDS011;43153;50.984;18.204;2022-07-22T02:16:38;10.70;;;5.20;;
57309;SDS011;43153;50.984;18.204;2022-07-22T02:19:23;11.30;;;5.10;;
57309;SDS011;43153;50.984;18.204;2022-07-22T02:22:08;17.60;;;5.80;;
57309;SDS011;43153;50.984;18.204;2022-07-22T02:24:54;10.80;;;4.40;;
57309;SDS011;43153;50.984;18.204;2022-07-22T02:27:39;16.50;;;5.30;;
57309;SDS011;43153;50.984;18.204;2022-07-22T02:30:25;10.10;;;4.90;;
57309;SDS011;43153;50.984;18.204;2022-07-22T02:33:09;11.10;;;4.70;;
57309;SDS011;43153;50.984;18.204;2022-07-22T02:35:53;9.30;;;5.30;;
57309;SDS011;43153;50.984;18.204;2022-07-22T02:38:39;12.80;;;5.30;;
57309;SDS011;43153;50.984;18.204;2022-07-22T02:41:23;9.30;;;5.40;;
57309;SDS011;43153;50.984;18.204;2022-07-22T02:44:08;13.00;;;5.70;;
57309;SDS011;43153;50.984;18.204;2022-07-22T02:46:53;14.50;;;6.40;;
57309;SDS011;43153;50.984;18.204;2022-07-22T02:49:37;11.60;;;5.30;;
57309;SDS011;43153;50.984;18.204;2022-07-22T02:52:22;12.60;;;5.70;;
57309;SDS011;43153;50.984;18.204;2022-07-22T02:55:06;12.20;;;6.10;;
57309;SDS011;43153;50.984;18.204;2022-07-22T02:57:51;13.20;;;6.50;;
57309;SDS011;43153;50.984;18.204;2022-07-22T03:00:35;13.90;;;7.30;;
57309;SDS011;43153;50.984;18.204;2022-07-22T03:03:21;14.80;;;8.40;;
57309;SDS011;43153;50.984;18.204;2022-07-22T03:06:06;15.20;;;7.40;;
57309;SDS011;43153;50.984;18.204;2022-07-22T03:08:50;12.10;;;5.60;;
57309;SDS011;43153;50.984;18.204;2022-07-22T03:11:34;10.70;;;5.30;;
57309;SDS011;43153;50.984;18.204;2022-07-22T03:14:18;12.40;;;5.50;;
57309;SDS011;43153;50.984;18.204;2022-07-22T03:17:03;10.00;;;5.10;;
57309;SDS011;43153;50.984;18.204;2022-07-22T03:19:48;11.00;;;5.00;;
57309;SDS011;43153;50.984;18.204;2022-07-22T03:22:32;11.50;;;4.90;;
57309;SDS011;43153;50.984;18.204;2022-07-22T03:25:16;9.90;;;4.80;;
57309;SDS011;43153;50.984;18.204;2022-07-22T03:28:01;9.40;;;4.70;;
57309;SDS011;43153;50.984;18.204;2022-07-22T03:30:45;10.20;;;4.60;;
57309;SDS011;43153;50.984;18.204;2022-07-22T03:33:30;9.30;;;4.30;;
57309;SDS011;43153;50.984;18.204;2022-07-22T03:36:15;12.90;;;5.20;;
57309;SDS011;43153;50.984;18.204;2022-07-22T03:39:00;11.60;;;5.00;;
57309;SDS011;43153;50.984;18.204;2022-07-22T03:41:45;9.60;;;4.80;;
57309;SDS011;43153;50.984;18.204;2022-07-22T03:44:29;9.30;;;4.80;;
57309;SDS011;43153;50.984;18.204;2022-07-22T03:47:19;11.10;;;4.70;;
57309;SDS011;43153;50.984;18.204;2022-07-22T03:50:04;8.80;;;4.60;;
57309;SDS011;43153;50.984;18.204;2022-07-22T03:52:48;8.30;;;4.50;;
57309;SDS011;43153;50.984;18.204;2022-07-22T03:58:55;11.60;;;5.30;;
57309;SDS011;43153;50.984;18.204;2022-07-22T04:01:39;9.80;;;4.90;;
57309;SDS011;43153;50.984;18.204;2022-07-22T04:10:31;9.20;;;4.40;;
57309;SDS011;43153;50.984;18.204;2022-07-22T04:13:15;9.30;;;4.80;;
57309;SDS011;43153;50.984;18.204;2022-07-22T04:16:00;12.60;;;4.80;;
57309;SDS011;43153;50.984;18.204;2022-07-22T04:18:44;8.90;;;4.80;;
57309;SDS011;43153;50.984;18.204;2022-07-22T04:21:29;9.30;;;4.70;;
57309;SDS011;43153;50.984;18.204;2022-07-22T04:24:13;10.50;;;5.00;;
57309;SDS011;43153;50.984;18.204;2022-07-22T04:26:57;10.40;;;5.50;;
57309;SDS011;43153;50.984;18.204;2022-07-22T04:29:42;9.80;;;5.00;;
57309;SDS011;43153;50.984;18.204;2022-07-22T04:32:26;10.90;;;5.10;;
57309;SDS011;43153;50.984;18.204;2022-07-22T04:35:10;11.50;;;5.00;;
57309;SDS011;43153;50.984;18.204;2022-07-22T04:37:54;11.00;;;5.10;;
57309;SDS011;43153;50.984;18.204;2022-07-22T04:40:39;9.30;;;4.60;;
57309;SDS011;43153;50.984;18.204;2022-07-22T04:43:25;12.60;;;5.00;;
57309;SDS011;43153;50.984;18.204;2022-07-22T04:46:10;28.80;;;6.50;;
57309;SDS011;43153;50.984;18.204;2022-07-22T04:48:55;22.80;;;6.40;;
57309;SDS011;43153;50.984;18.204;2022-07-22T04:51:39;24.00;;;5.60;;
57309;SDS011;43153;50.984;18.204;2022-07-22T04:54:24;16.50;;;6.70;;
57309;SDS011;43153;50.984;18.204;2022-07-22T04:57:09;23.10;;;5.70;;
57309;SDS011;43153;50.984;18.204;2022-07-22T04:59:53;14.80;;;5.80;;
57309;SDS011;43153;50.984;18.204;2022-07-22T05:02:37;13.40;;;5.40;;
57309;SDS011;43153;50.984;18.204;2022-07-22T05:05:22;11.40;;;5.60;;
57309;SDS011;43153;50.984;18.204;2022-07-22T05:08:06;12.50;;;5.30;;
57309;SDS011;43153;50.984;18.204;2022-07-22T05:10:51;11.20;;;4.60;;
57309;SDS011;43153;50.984;18.204;2022-07-22T05:13:35;9.20;;;5.30;;
57309;SDS011;43153;50.984;18.204;2022-07-22T05:16:20;10.10;;;4.80;;
57309;SDS011;43153;50.984;18.204;2022-07-22T05:19:04;13.00;;;5.10;;
57309;SDS011;43153;50.984;18.204;2022-07-22T05:21:49;10.10;;;5.60;;
57309;SDS011;43153;50.984;18.204;2022-07-22T05:24:33;9.10;;;4.90;;
57309;SDS011;43153;50.984;18.204;2022-07-22T05:27:18;13.10;;;5.00;;
57309;SDS011;43153;50.984;18.204;2022-07-22T05:30:05;14.30;;;5.40;;
57309;SDS011;43153;50.984;18.204;2022-07-22T05:32:49;10.50;;;4.40;;
57309;SDS011;43153;50.984;18.204;2022-07-22T05:35:33;11.60;;;5.70;;
57309;SDS011;43153;50.984;18.204;2022-07-22T05:38:17;8.50;;;4.80;;
57309;SDS011;43153;50.984;18.204;2022-07-22T05:41:02;9.70;;;4.60;;
57309;SDS011;43153;50.984;18.204;2022-07-22T05:43:46;9.60;;;5.10;;
57309;SDS011;43153;50.984;18.204;2022-07-22T05:46:30;10.70;;;4.80;;
57309;SDS011;43153;50.984;18.204;2022-07-22T05:49:14;10.00;;;4.30;;
57309;SDS011;43153;50.984;18.204;2022-07-22T05:51:58;15.40;;;4.80;;
57309;SDS011;43153;50.984;18.204;2022-07-22T05:54:44;10.30;;;4.50;;
57309;SDS011;43153;50.984;18.204;2022-07-22T05:57:29;12.30;;;4.60;;
57309;SDS011;43153;50.984;18.204;2022-07-22T06:00:13;13.80;;;5.10;;
57309;SDS011;43153;50.984;18.204;2022-07-22T06:02:58;18.40;;;5.30;;
57309;SDS011;43153;50.984;18.204;2022-07-22T06:05:42;10.00;;;4.70;;
57309;SDS011;43153;50.984;18.204;2022-07-22T06:08:28;19.10;;;6.30;;
57309;SDS011;43153;50.984;18.204;2022-07-22T06:11:12;18.40;;;5.40;;
57309;SDS011;43153;50.984;18.204;2022-07-22T06:13:57;11.70;;;4.50;;
57309;SDS011;43153;50.984;18.204;2022-07-22T06:16:41;12.20;;;5.00;;
57309;SDS011;43153;50.984;18.204;2022-07-22T06:19:25;8.70;;;4.30;;
57309;SDS011;43153;50.984;18.204;2022-07-22T06:22:09;9.60;;;5.10;;
57309;SDS011;43153;50.984;18.204;2022-07-22T06:24:54;9.50;;;3.90;;
57309;SDS011;43153;50.984;18.204;2022-07-22T06:27:39;19.70;;;5.90;;
57309;SDS011;43153;50.984;18.204;2022-07-22T06:30:23;27.70;;;6.70;;
57309;SDS011;43153;50.984;18.204;2022-07-22T06:33:08;14.60;;;5.00;;
57309;SDS011;43153;50.984;18.204;2022-07-22T06:35:52;17.10;;;4.60;;
57309;SDS011;43153;50.984;18.204;2022-07-22T06:38:36;8.10;;;4.90;;
57309;SDS011;43153;50.984;18.204;2022-07-22T06:41:21;28.70;;;6.10;;
57309;SDS011;43153;50.984;18.204;2022-07-22T06:44:05;10.10;;;4.60;;
57309;SDS011;43153;50.984;18.204;2022-07-22T06:46:49;23.00;;;5.80;;
57309;SDS011;43153;50.984;18.204;2022-07-22T06:49:33;17.50;;;6.10;;
57309;SDS011;43153;50.984;18.204;2022-07-22T06:52:18;12.60;;;4.70;;
57309;SDS011;43153;50.984;18.204;2022-07-22T06:55:03;11.80;;;5.20;;
57309;SDS011;43153;50.984;18.204;2022-07-22T06:57:47;9.40;;;5.30;;
57309;SDS011;43153;50.984;18.204;2022-07-22T07:00:34;9.20;;;4.30;;
57309;SDS011;43153;50.984;18.204;2022-07-22T07:03:21;11.90;;;5.00;;
57309;SDS011;43153;50.984;18.204;2022-07-22T07:06:10;10.50;;;4.10;;
57309;SDS011;43153;50.984;18.204;2022-07-22T07:08:58;11.50;;;4.90;;
57309;SDS011;43153;50.984;18.204;2022-07-22T07:11:42;7.80;;;4.40;;
57309;SDS011;43153;50.984;18.204;2022-07-22T07:14:26;13.40;;;4.80;;
57309;SDS011;43153;50.984;18.204;2022-07-22T07:17:11;16.60;;;4.80;;
57309;SDS011;43153;50.984;18.204;2022-07-22T07:19:57;7.20;;;3.60;;
57309;SDS011;43153;50.984;18.204;2022-07-22T07:22:41;15.40;;;5.30;;
57309;SDS011;43153;50.984;18.204;2022-07-22T07:25:26;17.80;;;5.00;;
57309;SDS011;43153;50.984;18.204;2022-07-22T07:28:10;10.50;;;4.60;;
57309;SDS011;43153;50.984;18.204;2022-07-22T07:30:54;9.10;;;4.30;;
57309;SDS011;43153;50.984;18.204;2022-07-22T07:33:39;10.90;;;4.50;;
57309;SDS011;43153;50.984;18.204;2022-07-22T07:36:23;7.40;;;4.40;;
57309;SDS011;43153;50.984;18.204;2022-07-22T07:39:11;16.00;;;4.50;;
57309;SDS011;43153;50.984;18.204;2022-07-22T07:41:55;12.70;;;4.80;;
57309;SDS011;43153;50.984;18.204;2022-07-22T07:44:39;10.30;;;5.10;;
57309;SDS011;43153;50.984;18.204;2022-07-22T07:47:24;8.60;;;5.00;;
57309;SDS011;43153;50.984;18.204;2022-07-22T07:50:09;10.70;;;5.00;;
57309;SDS011;43153;50.984;18.204;2022-07-22T07:52:54;13.50;;;5.30;;
57309;SDS011;43153;50.984;18.204;2022-07-22T07:55:39;9.00;;;4.70;;
57309;SDS011;43153;50.984;18.204;2022-07-22T07:58:23;10.00;;;5.10;;
57309;SDS011;43153;50.984;18.204;2022-07-22T08:01:08;8.30;;;5.40;;
57309;SDS011;43153;50.984;18.204;2022-07-22T08:03:52;10.20;;;4.80;;
57309;SDS011;43153;50.984;18.204;2022-07-22T08:06:36;10.90;;;4.50;;
57309;SDS011;43153;50.984;18.204;2022-07-22T08:09:21;10.70;;;4.70;;
57309;SDS011;43153;50.984;18.204;2022-07-22T08:12:05;13.00;;;5.50;;
57309;SDS011;43153;50.984;18.204;2022-07-22T08:14:50;9.10;;;4.50;;
57309;SDS011;43153;50.984;18.204;2022-07-22T08:17:34;7.70;;;4.60;;
57309;SDS011;43153;50.984;18.204;2022-07-22T08:20:18;10.70;;;4.70;;
57309;SDS011;43153;50.984;18.204;2022-07-22T08:23:02;11.00;;;4.70;;
57309;SDS011;43153;50.984;18.204;2022-07-22T08:25:46;9.00;;;4.70;;
57309;SDS011;43153;50.984;18.204;2022-07-22T08:28:31;8.70;;;4.70;;
57309;SDS011;43153;50.984;18.204;2022-07-22T08:31:15;8.60;;;4.20;;
57309;SDS011;43153;50.984;18.204;2022-07-22T08:34:00;7.20;;;4.20;;
57309;SDS011;43153;50.984;18.204;2022-07-22T08:36:45;8.00;;;4.50;;
57309;SDS011;43153;50.984;18.204;2022-07-22T08:39:29;10.40;;;4.40;;
57309;SDS011;43153;50.984;18.204;2022-07-22T08:42:14;9.20;;;4.10;;
57309;SDS011;43153;50.984;18.204;2022-07-22T08:44:58;5.10;;;3.20;;
57309;SDS011;43153;50.984;18.204;2022-07-22T08:47:44;7.80;;;4.00;;
57309;SDS011;43153;50.984;18.204;2022-07-22T08:50:29;9.30;;;5.00;;
57309;SDS011;43153;50.984;18.204;2022-07-22T08:53:14;9.10;;;5.00;;
57309;SDS011;43153;50.984;18.204;2022-07-22T08:55:58;13.20;;;5.40;;
57309;SDS011;43153;50.984;18.204;2022-07-22T08:58:43;11.00;;;4.30;;
57309;SDS011;43153;50.984;18.204;2022-07-22T09:01:27;22.70;;;4.80;;
57309;SDS011;43153;50.984;18.204;2022-07-22T09:04:11;6.60;;;4.50;;
57309;SDS011;43153;50.984;18.204;2022-07-22T09:06:55;17.50;;;6.20;;
57309;SDS011;43153;50.984;18.204;2022-07-22T09:09:40;10.70;;;4.00;;
57309;SDS011;43153;50.984;18.204;2022-07-22T09:12:25;6.60;;;3.70;;
57309;SDS011;43153;50.984;18.204;2022-07-22T09:15:14;13.70;;;4.40;;
57309;SDS011;43153;50.984;18.204;2022-07-22T09:17:59;9.40;;;4.30;;
57309;SDS011;43153;50.984;18.204;2022-07-22T09:20:44;7.40;;;4.70;;
57309;SDS011;43153;50.984;18.204;2022-07-22T09:23:28;9.40;;;4.80;;
57309;SDS011;43153;50.984;18.204;2022-07-22T09:26:29;8.20;;;4.50;;
57309;SDS011;43153;50.984;18.204;2022-07-22T09:29:14;10.10;;;4.40;;
57309;SDS011;43153;50.984;18.204;2022-07-22T09:31:58;11.60;;;4.00;;
57309;SDS011;43153;50.984;18.204;2022-07-22T09:34:42;9.10;;;4.30;;
57309;SDS011;43153;50.984;18.204;2022-07-22T09:37:26;14.60;;;4.80;;
57309;SDS011;43153;50.984;18.204;2022-07-22T09:40:15;7.80;;;4.10;;
57309;SDS011;43153;50.984;18.204;2022-07-22T09:43:05;8.50;;;4.60;;
57309;SDS011;43153;50.984;18.204;2022-07-22T09:48:34;9.40;;;4.50;;
57309;SDS011;43153;50.984;18.204;2022-07-22T09:51:19;8.40;;;4.30;;
57309;SDS011;43153;50.984;18.204;2022-07-22T09:54:04;6.30;;;4.00;;
57309;SDS011;43153;50.984;18.204;2022-07-22T09:56:48;7.90;;;4.20;;
57309;SDS011;43153;50.984;18.204;2022-07-22T09:59:32;8.10;;;4.90;;
57309;SDS011;43153;50.984;18.204;2022-07-22T10:02:16;7.70;;;4.50;;
57309;SDS011;43153;50.984;18.204;2022-07-22T10:05:04;7.10;;;4.10;;
57309;SDS011;43153;50.984;18.204;2022-07-22T10:07:49;7.00;;;3.60;;
57309;SDS011;43153;50.984;18.204;2022-07-22T10:10:35;7.50;;;3.90;;
57309;SDS011;43153;50.984;18.204;2022-07-22T10:13:19;8.60;;;4.10;;
57309;SDS011;43153;50.984;18.204;2022-07-22T10:16:03;8.40;;;3.90;;
57309;SDS011;43153;50.984;18.204;2022-07-22T10:18:48;8.40;;;3.80;;
57309;SDS011;43153;50.984;18.204;2022-07-22T10:21:33;8.00;;;3.90;;
57309;SDS011;43153;50.984;18.204;2022-07-22T10:24:18;8.20;;;4.90;;
57309;SDS011;43153;50.984;18.204;2022-07-22T10:27:03;9.90;;;5.00;;
57309;SDS011;43153;50.984;18.204;2022-07-22T10:29:47;6.40;;;4.10;;
57309;SDS011;43153;50.984;18.204;2022-07-22T10:32:34;8.40;;;4.20;;
57309;SDS011;43153;50.984;18.204;2022-07-22T10:35:19;5.70;;;3.20;;
57309;SDS011;43153;50.984;18.204;2022-07-22T10:38:05;6.50;;;3.80;;
57309;SDS011;43153;50.984;18.204;2022-07-22T10:49:31;6.50;;;3.60;;
57309;SDS011;43153;50.984;18.204;2022-07-22T10:52:15;6.30;;;3.40;;
57309;SDS011;43153;50.984;18.204;2022-07-22T10:55:17;5.70;;;3.20;;
57309;SDS011;43153;50.984;18.204;2022-07-22T11:01:07;9.20;;;3.00;;
57309;SDS011;43153;50.984;18.204;2022-07-22T11:03:51;5.40;;;3.10;;
57309;SDS011;43153;50.984;18.204;2022-07-22T11:06:37;6.30;;;3.00;;
57309;SDS011;43153;50.984;18.204;2022-07-22T11:09:23;6.90;;;3.50;;
57309;SDS011;43153;50.984;18.204;2022-07-22T11:12:11;5.60;;;3.20;;
57309;SDS011;43153;50.984;18.204;2022-07-22T11:15:00;9.00;;;3.40;;
57309;SDS011;43153;50.984;18.204;2022-07-22T11:17:44;17.00;;;3.30;;
57309;SDS011;43153;50.984;18.204;2022-07-22T11:20:28;9.30;;;3.80;;
57309;SDS011;43153;50.984;18.204;2022-07-22T11:23:13;5.60;;;3.50;;
57309;SDS011;43153;50.984;18.204;2022-07-22T11:25:57;7.10;;;3.10;;
57309;SDS011;43153;50.984;18.204;2022-07-22T11:28:44;7.10;;;2.90;;
57309;SDS011;43153;50.984;18.204;2022-07-22T11:31:28;5.00;;;3.00;;
57309;SDS011;43153;50.984;18.204;2022-07-22T11:34:14;8.00;;;3.10;;
57309;SDS011;43153;50.984;18.204;2022-07-22T11:37:02;5.60;;;3.30;;
57309;SDS011;43153;50.984;18.204;2022-07-22T11:39:46;11.10;;;3.40;;
57309;SDS011;43153;50.984;18.204;2022-07-22T11:42:30;7.20;;;3.00;;
57309;SDS011;43153;50.984;18.204;2022-07-22T11:45:14;7.40;;;3.20;;
57309;SDS011;43153;50.984;18.204;2022-07-22T11:48:07;4.50;;;2.80;;
57309;SDS011;43153;50.984;18.204;2022-07-22T11:51:03;4.50;;;2.60;;
57309;SDS011;43153;50.984;18.204;2022-07-22T11:53:48;5.00;;;2.70;;
57309;SDS011;43153;50.984;18.204;2022-07-22T11:56:33;5.50;;;2.90;;
57309;SDS011;43153;50.984;18.204;2022-07-22T11:59:18;9.10;;;3.20;;
57309;SDS011;43153;50.984;18.204;2022-07-22T12:02:05;5.40;;;3.00;;
57309;SDS011;43153;50.984;18.204;2022-07-22T12:04:51;8.00;;;3.00;;
57309;SDS011;43153;50.984;18.204;2022-07-22T12:07:35;6.00;;;3.40;;
57309;SDS011;43153;50.984;18.204;2022-07-22T12:10:19;9.90;;;3.10;;
57309;SDS011;43153;50.984;18.204;2022-07-22T12:13:04;6.20;;;2.60;;
57309;SDS011;43153;50.984;18.204;2022-07-22T12:15:48;3.90;;;2.30;;
57309;SDS011;43153;50.984;18.204;2022-07-22T12:18:38;6.20;;;2.30;;
57309;SDS011;43153;50.984;18.204;2022-07-22T12:21:24;6.10;;;2.80;;
57309;SDS011;43153;50.984;18.204;2022-07-22T12:24:10;8.80;;;3.30;;
57309;SDS011;43153;50.984;18.204;2022-07-22T12:26:55;7.50;;;3.20;;
57309;SDS011;43153;50.984;18.204;2022-07-22T12:32:25;5.60;;;2.70;;
57309;SDS011;43153;50.984;18.204;2022-07-22T12:35:09;10.10;;;3.00;;
57309;SDS011;43153;50.984;18.204;2022-07-22T12:37:58;6.10;;;3.10;;
57309;SDS011;43153;50.984;18.204;2022-07-22T12:40:49;5.20;;;2.60;;
57309;SDS011;43153;50.984;18.204;2022-07-22T12:43:33;7.70;;;2.80;;
57309;SDS011;43153;50.984;18.204;2022-07-22T12:46:21;5.50;;;2.70;;
57309;SDS011;43153;50.984;18.204;2022-07-22T12:49:06;4.30;;;2.50;;
57309;SDS011;43153;50.984;18.204;2022-07-22T12:52:07;5.10;;;2.80;;
57309;SDS011;43153;50.984;18.204;2022-07-22T12:54:52;5.20;;;2.50;;
57309;SDS011;43153;50.984;18.204;2022-07-22T12:57:39;4.70;;;2.40;;
57309;SDS011;43153;50.984;18.204;2022-07-22T13:00:29;5.80;;;2.90;;
57309;SDS011;43153;50.984;18.204;2022-07-22T13:03:14;3.20;;;2.10;;
57309;SDS011;43153;50.984;18.204;2022-07-22T13:06:02;5.40;;;2.90;;
57309;SDS011;43153;50.984;18.204;2022-07-22T13:08:47;5.20;;;3.10;;
57309;SDS011;43153;50.984;18.204;2022-07-22T13:11:31;7.60;;;3.30;;
57309;SDS011;43153;50.984;18.204;2022-07-22T13:14:16;5.70;;;3.20;;
57309;SDS011;43153;50.984;18.204;2022-07-22T13:17:00;5.50;;;2.90;;
57309;SDS011;43153;50.984;18.204;2022-07-22T13:19:44;5.50;;;2.80;;
57309;SDS011;43153;50.984;18.204;2022-07-22T13:22:29;5.80;;;3.20;;
57309;SDS011;43153;50.984;18.204;2022-07-22T13:25:13;7.00;;;3.20;;
57309;SDS011;43153;50.984;18.204;2022-07-22T13:27:57;6.60;;;3.20;;
57309;SDS011;43153;50.984;18.204;2022-07-22T13:30:42;7.10;;;2.80;;
57309;SDS011;43153;50.984;18.204;2022-07-22T13:33:26;4.60;;;2.50;;
57309;SDS011;43153;50.984;18.204;2022-07-22T13:36:11;5.70;;;2.70;;
57309;SDS011;43153;50.984;18.204;2022-07-22T13:38:55;6.70;;;3.00;;
57309;SDS011;43153;50.984;18.204;2022-07-22T13:41:40;7.00;;;3.20;;
57309;SDS011;43153;50.984;18.204;2022-07-22T13:44:24;5.10;;;2.90;;
57309;SDS011;43153;50.984;18.204;2022-07-22T13:47:09;15.50;;;2.90;;
57309;SDS011;43153;50.984;18.204;2022-07-22T13:49:53;5.40;;;2.80;;
57309;SDS011;43153;50.984;18.204;2022-07-22T13:52:37;5.50;;;3.30;;
57309;SDS011;43153;50.984;18.204;2022-07-22T13:55:22;4.40;;;2.80;;
57309;SDS011;43153;50.984;18.204;2022-07-22T13:58:06;5.80;;;2.80;;
57309;SDS011;43153;50.984;18.204;2022-07-22T14:00:51;5.20;;;2.50;;
57309;SDS011;43153;50.984;18.204;2022-07-22T14:03:36;7.60;;;3.60;;
57309;SDS011;43153;50.984;18.204;2022-07-22T14:06:20;7.40;;;3.10;;
57309;SDS011;43153;50.984;18.204;2022-07-22T14:09:05;4.30;;;2.40;;
57309;SDS011;43153;50.984;18.204;2022-07-22T14:11:49;7.20;;;3.20;;
57309;SDS011;43153;50.984;18.204;2022-07-22T14:14:33;7.20;;;2.90;;
57309;SDS011;43153;50.984;18.204;2022-07-22T14:17:18;6.70;;;2.80;;
57309;SDS011;43153;50.984;18.204;2022-07-22T14:20:06;4.90;;;2.30;;
57309;SDS011;43153;50.984;18.204;2022-07-22T14:22:52;5.20;;;2.70;;
57309;SDS011;43153;50.984;18.204;2022-07-22T14:25:37;4.80;;;2.80;;
57309;SDS011;43153;50.984;18.204;2022-07-22T14:28:21;6.50;;;2.90;;
57309;SDS011;43153;50.984;18.204;2022-07-22T14:31:05;6.90;;;2.80;;
57309;SDS011;43153;50.984;18.204;2022-07-22T14:33:49;5.20;;;2.90;;
57309;SDS011;43153;50.984;18.204;2022-07-22T14:36:34;5.90;;;3.00;;
57309;SDS011;43153;50.984;18.204;2022-07-22T14:39:18;9.00;;;3.30;;
57309;SDS011;43153;50.984;18.204;2022-07-22T14:42:03;6.60;;;2.70;;
57309;SDS011;43153;50.984;18.204;2022-07-22T14:44:48;7.40;;;3.10;;
57309;SDS011;43153;50.984;18.204;2022-07-22T14:47:33;5.70;;;3.30;;
57309;SDS011;43153;50.984;18.204;2022-07-22T14:50:17;6.60;;;3.50;;
57309;SDS011;43153;50.984;18.204;2022-07-22T14:53:01;5.70;;;3.20;;
57309;SDS011;43153;50.984;18.204;2022-07-22T14:55:46;6.70;;;3.40;;
57309;SDS011;43153;50.984;18.204;2022-07-22T14:58:30;6.80;;;3.00;;
57309;SDS011;43153;50.984;18.204;2022-07-22T15:01:14;6.60;;;3.20;;
57309;SDS011;43153;50.984;18.204;2022-07-22T15:04:00;8.20;;;2.90;;
57309;SDS011;43153;50.984;18.204;2022-07-22T15:06:44;7.30;;;3.40;;
57309;SDS011;43153;50.984;18.204;2022-07-22T15:09:29;6.90;;;2.90;;
57309;SDS011;43153;50.984;18.204;2022-07-22T15:12:13;7.30;;;3.60;;
57309;SDS011;43153;50.984;18.204;2022-07-22T15:14:57;6.40;;;3.40;;
57309;SDS011;43153;50.984;18.204;2022-07-22T15:17:41;9.40;;;3.20;;
57309;SDS011;43153;50.984;18.204;2022-07-22T15:20:27;6.20;;;2.90;;
57309;SDS011;43153;50.984;18.204;2022-07-22T15:23:11;8.20;;;3.90;;
57309;SDS011;43153;50.984;18.204;2022-07-22T15:25:59;5.30;;;3.10;;
57309;SDS011;43153;50.984;18.204;2022-07-22T15:28:44;7.50;;;3.60;;
57309;SDS011;43153;50.984;18.204;2022-07-22T15:31:31;6.30;;;3.60;;
57309;SDS011;43153;50.984;18.204;2022-07-22T15:34:16;7.70;;;3.70;;
57309;SDS011;43153;50.984;18.204;2022-07-22T15:37:01;6.70;;;3.10;;
57309;SDS011;43153;50.984;18.204;2022-07-22T15:39:45;5.90;;;3.10;;
57309;SDS011;43153;50.984;18.204;2022-07-22T15:42:30;6.30;;;3.30;;
57309;SDS011;43153;50.984;18.204;2022-07-22T15:45:15;7.10;;;3.40;;
57309;SDS011;43153;50.984;18.204;2022-07-22T15:48:01;8.10;;;3.10;;
57309;SDS011;43153;50.984;18.204;2022-07-22T15:50:45;6.90;;;3.60;;
57309;SDS011;43153;50.984;18.204;2022-07-22T15:53:30;6.10;;;3.20;;
57309;SDS011;43153;50.984;18.204;2022-07-22T15:56:14;10.00;;;3.10;;
57309;SDS011;43153;50.984;18.204;2022-07-22T15:58:59;7.00;;;3.60;;
57309;SDS011;43153;50.984;18.204;2022-07-22T16:02:03;7.10;;;3.60;;
57309;SDS011;43153;50.984;18.204;2022-07-22T16:04:47;6.10;;;3.30;;
57309;SDS011;43153;50.984;18.204;2022-07-22T16:07:32;8.00;;;4.00;;
57309;SDS011;43153;50.984;18.204;2022-07-22T16:10:16;9.00;;;3.90;;
57309;SDS011;43153;50.984;18.204;2022-07-22T16:13:01;7.40;;;3.60;;
57309;SDS011;43153;50.984;18.204;2022-07-22T16:15:46;6.30;;;3.60;;
57309;SDS011;43153;50.984;18.204;2022-07-22T16:18:30;7.70;;;4.10;;
57309;SDS011;43153;50.984;18.204;2022-07-22T16:21:14;7.00;;;3.60;;
57309;SDS011;43153;50.984;18.204;2022-07-22T16:23:59;8.10;;;4.60;;
57309;SDS011;43153;50.984;18.204;2022-07-22T16:26:44;5.40;;;3.20;;
57309;SDS011;43153;50.984;18.204;2022-07-22T16:29:29;6.10;;;3.30;;
57309;SDS011;43153;50.984;18.204;2022-07-22T16:32:13;7.00;;;3.60;;
57309;SDS011;43153;50.984;18.204;2022-07-22T16:34:59;7.70;;;3.70;;
57309;SDS011;43153;50.984;18.204;2022-07-22T16:37:43;7.00;;;3.60;;
57309;SDS011;43153;50.984;18.204;2022-07-22T16:40:28;7.90;;;3.60;;